createdAt,value
2022-12-27T00:01:18.802Z,13.70
2022-12-27T00:03:46.765Z,13.70
2022-12-27T00:06:21.351Z,13.60
2022-12-27T00:08:49.250Z,13.70
2022-12-27T00:11:20.100Z,13.70
2022-12-27T00:13:47.661Z,13.80
2022-12-27T00:16:16.957Z,13.80
2022-12-27T00:18:44.831Z,13.80
2022-12-27T00:21:13.995Z,13.80
2022-12-27T00:23:45.100Z,13.90
2022-12-27T00:26:18.675Z,13.90
2022-12-27T00:28:46.220Z,13.90
2022-12-27T00:31:14.206Z,13.90
2022-12-27T00:33:43.708Z,13.90
2022-12-27T00:36:13.845Z,13.90
2022-12-27T00:38:41.723Z,13.90
2022-12-27T00:41:09.578Z,14.00
2022-12-27T00:43:37.332Z,14.00
2022-12-27T00:46:05.287Z,14.00
2022-12-27T00:48:33.483Z,13.90
2022-12-27T00:51:08.799Z,13.90
2022-12-27T00:53:36.350Z,13.90
2022-12-27T00:56:18.395Z,13.80
2022-12-27T00:58:45.680Z,13.70
2022-12-27T01:01:16.097Z,13.70
2022-12-27T01:03:44.071Z,13.70
2022-12-27T01:06:17.266Z,13.60
2022-12-27T01:08:45.927Z,13.60
2022-12-27T01:11:14.508Z,13.50
2022-12-27T01:13:42.807Z,13.50
2022-12-27T01:16:20.380Z,13.40
2022-12-27T01:18:49.192Z,13.40
2022-12-27T01:21:19.479Z,13.40
2022-12-27T01:23:47.846Z,13.30
2022-12-27T01:26:19.626Z,13.30
2022-12-27T01:28:47.962Z,13.30
2022-12-27T01:31:19.725Z,13.30
2022-12-27T01:33:47.503Z,13.30
2022-12-27T01:36:21.121Z,13.20
2022-12-27T01:38:49.194Z,13.20
2022-12-27T01:41:50.550Z,13.20
2022-12-27T01:44:51.460Z,13.10
2022-12-27T01:47:25.246Z,13.00
2022-12-27T01:50:14.256Z,13.00
2022-12-27T01:52:54.309Z,13.00
2022-12-27T01:55:45.576Z,13.00
2022-12-27T01:58:30.340Z,13.00
2022-12-27T02:00:59.346Z,12.90
2022-12-27T02:03:32.911Z,12.90
2022-12-27T02:06:03.344Z,12.90
2022-12-27T02:08:51.392Z,12.90
2022-12-27T02:11:42.026Z,12.90
2022-12-27T02:14:12.173Z,12.90
2022-12-27T02:16:39.897Z,12.80
2022-12-27T02:19:18.369Z,12.80
2022-12-27T02:22:23.179Z,12.80
2022-12-27T02:25:21.854Z,12.80
2022-12-27T02:28:04.437Z,12.80
2022-12-27T02:30:34.320Z,12.70
2022-12-27T02:33:13.999Z,12.70
2022-12-27T02:35:52.996Z,12.60
2022-12-27T02:38:27.206Z,12.50
2022-12-27T02:41:14.920Z,12.50
2022-12-27T02:44:00.740Z,12.50
2022-12-27T02:46:49.189Z,12.40
2022-12-27T02:49:42.713Z,12.40
2022-12-27T02:53:05.302Z,12.30
2022-12-27T02:56:25.333Z,12.30
2022-12-27T02:59:25.640Z,12.30
2022-12-27T03:02:22.188Z,12.30
2022-12-27T03:04:57.405Z,12.30
2022-12-27T03:07:40.414Z,12.20
2022-12-27T03:10:34.214Z,12.20
2022-12-27T03:13:45.579Z,12.20
2022-12-27T03:16:23.105Z,12.20
2022-12-27T03:19:35.701Z,12.20
2022-12-27T03:22:24.071Z,12.20
2022-12-27T03:25:11.854Z,12.10
2022-12-27T03:27:40.307Z,12.10
2022-12-27T03:30:27.905Z,12.00
2022-12-27T03:33:14.159Z,12.00
2022-12-27T03:36:14.662Z,11.90
2022-12-27T03:39:00.416Z,11.80
2022-12-27T03:41:55.081Z,11.80
2022-12-27T03:44:25.285Z,11.80
2022-12-27T03:47:12.739Z,11.70
2022-12-27T03:49:50.378Z,11.70
2022-12-27T03:52:25.127Z,11.60
2022-12-27T03:54:53.747Z,11.60
2022-12-27T03:57:23.212Z,11.70
2022-12-27T03:59:50.810Z,11.70
2022-12-27T04:02:18.918Z,11.70
2022-12-27T04:04:46.384Z,11.70
2022-12-27T04:07:14.955Z,11.70
2022-12-27T04:10:00.912Z,11.70
2022-12-27T04:12:47.207Z,11.60
2022-12-27T04:15:33.071Z,11.60
2022-12-27T04:18:19.069Z,11.60
2022-12-27T04:21:05.061Z,11.50
2022-12-27T04:23:51.218Z,11.40
2022-12-27T04:26:37.777Z,11.40
2022-12-27T04:29:23.631Z,11.40
2022-12-27T04:32:09.487Z,11.40
2022-12-27T04:34:45.960Z,11.40
2022-12-27T04:37:16.000Z,11.40
2022-12-27T04:40:03.555Z,11.30
2022-12-27T04:42:49.844Z,11.30
2022-12-27T04:45:36.175Z,11.20
2022-12-27T04:48:22.328Z,11.20
2022-12-27T04:51:08.248Z,11.10
2022-12-27T04:53:54.467Z,11.10
2022-12-27T04:56:21.861Z,11.00
2022-12-27T04:59:07.664Z,11.00
2022-12-27T05:01:53.839Z,11.00
2022-12-27T05:04:21.478Z,11.00
2022-12-27T05:06:48.820Z,11.00
2022-12-27T05:09:35.200Z,11.00
2022-12-27T05:12:21.120Z,11.00
2022-12-27T05:14:48.606Z,11.00
2022-12-27T05:17:16.121Z,11.10
2022-12-27T05:19:43.485Z,11.10
2022-12-27T05:22:29.609Z,11.10
2022-12-27T05:25:15.520Z,11.10
2022-12-27T05:27:42.925Z,11.10
2022-12-27T05:30:11.173Z,11.10
2022-12-27T05:32:38.403Z,11.00
2022-12-27T05:35:06.202Z,10.90
2022-12-27T05:37:33.495Z,10.90
2022-12-27T05:40:00.893Z,10.90
2022-12-27T05:42:28.323Z,10.90
2022-12-27T05:44:56.426Z,10.90
2022-12-27T05:47:23.809Z,10.90
2022-12-27T05:49:51.146Z,10.90
2022-12-27T05:52:18.569Z,10.90
2022-12-27T05:54:46.665Z,10.80
2022-12-27T05:57:14.013Z,10.80
2022-12-27T05:59:41.620Z,10.70
2022-12-27T06:02:08.941Z,10.70
2022-12-27T06:04:36.386Z,10.60
2022-12-27T06:07:03.744Z,10.50
2022-12-27T06:09:31.256Z,10.50
2022-12-27T06:11:58.524Z,10.40
2022-12-27T06:14:26.162Z,10.40
2022-12-27T06:16:53.520Z,10.50
2022-12-27T06:19:20.943Z,10.50
2022-12-27T06:21:48.604Z,10.50
2022-12-27T06:24:16.824Z,10.40
2022-12-27T06:26:44.287Z,10.50
2022-12-27T06:29:14.700Z,10.50
2022-12-27T06:31:42.312Z,10.40
2022-12-27T06:34:11.392Z,10.30
2022-12-27T06:36:38.758Z,10.20
2022-12-27T06:39:06.203Z,10.00
2022-12-27T06:41:34.135Z,9.90
2022-12-27T06:44:01.389Z,9.80
2022-12-27T06:46:29.112Z,9.70
2022-12-27T06:48:57.394Z,9.60
2022-12-27T06:51:24.654Z,9.50
2022-12-27T06:53:52.039Z,9.50
2022-12-27T06:56:21.129Z,9.40
2022-12-27T06:58:49.834Z,9.40
2022-12-27T07:01:24.149Z,9.30
2022-12-27T07:03:53.556Z,9.30
2022-12-27T07:06:22.348Z,9.20
2022-12-27T07:08:50.853Z,9.20
2022-12-27T07:11:20.295Z,9.20
2022-12-27T07:13:50.686Z,9.20
2022-12-27T07:16:25.504Z,9.20
2022-12-27T07:18:54.840Z,9.20
2022-12-27T07:21:23.910Z,9.20
2022-12-27T07:23:51.649Z,9.20
2022-12-27T07:26:24.686Z,9.20
2022-12-27T07:28:54.937Z,9.20
2022-12-27T07:31:24.625Z,9.30
2022-12-27T07:33:53.369Z,9.30
2022-12-27T07:36:24.333Z,9.30
2022-12-27T07:38:52.172Z,9.30
2022-12-27T07:41:19.683Z,9.30
2022-12-27T07:43:47.111Z,9.30
2022-12-27T07:46:17.736Z,9.20
2022-12-27T07:48:45.299Z,9.20
2022-12-27T07:51:13.647Z,9.20
2022-12-27T07:53:41.065Z,9.20
2022-12-27T07:56:23.426Z,9.20
2022-12-27T07:58:54.639Z,9.20
2022-12-27T08:01:23.780Z,9.30
2022-12-27T08:03:51.685Z,9.20
2022-12-27T08:06:25.105Z,9.30
2022-12-27T08:08:55.396Z,9.30
2022-12-27T08:11:23.227Z,9.30
2022-12-27T08:13:50.596Z,9.30
2022-12-27T08:16:20.676Z,9.30
2022-12-27T08:18:49.080Z,9.30
2022-12-27T08:21:17.022Z,9.30
2022-12-27T08:23:44.646Z,9.40
2022-12-27T08:26:12.396Z,9.30
2022-12-27T08:28:40.177Z,9.40
2022-12-27T08:31:09.451Z,9.30
2022-12-27T08:33:37.376Z,9.30
2022-12-27T08:38:57.672Z,9.40
2022-12-27T08:41:25.113Z,9.50
2022-12-27T08:43:52.759Z,9.50
2022-12-27T08:46:20.685Z,9.60
2022-12-27T08:48:49.009Z,9.70
2022-12-27T08:51:30.012Z,9.70
2022-12-27T08:54:00.777Z,9.70
2022-12-27T08:56:28.105Z,9.70
2022-12-27T08:58:55.612Z,9.90
2022-12-27T09:01:23.206Z,9.90
2022-12-27T09:03:50.547Z,9.90
2022-12-27T09:06:20.251Z,9.70
2022-12-27T09:08:48.721Z,9.70
2022-12-27T09:11:22.302Z,9.80
2022-12-27T09:13:49.655Z,9.90
2022-12-27T09:16:21.157Z,9.90
2022-12-27T09:18:53.863Z,10.00
2022-12-27T09:21:22.752Z,10.10
2022-12-27T09:23:51.161Z,10.00
2022-12-27T09:26:24.085Z,10.00
2022-12-27T09:28:52.329Z,9.90
2022-12-27T09:31:21.873Z,10.00
2022-12-27T09:33:49.465Z,10.10
2022-12-27T09:36:19.593Z,10.00
2022-12-27T09:38:48.169Z,10.10
2022-12-27T09:44:47.964Z,10.00
2022-12-27T09:47:24.277Z,10.00
2022-12-27T09:50:11.142Z,10.00
2022-12-27T09:52:50.520Z,10.00
2022-12-27T09:55:53.444Z,9.90
2022-12-27T09:58:46.050Z,9.90
2022-12-27T10:01:33.064Z,9.80
2022-12-27T10:04:01.648Z,9.80
2022-12-27T10:06:31.954Z,9.80
2022-12-27T10:09:11.561Z,9.90
2022-12-27T10:11:53.802Z,9.90
2022-12-27T10:14:29.981Z,9.90
2022-12-27T10:17:10.692Z,9.80
2022-12-27T10:20:04.889Z,9.80
2022-12-27T10:22:37.115Z,9.90
2022-12-27T10:25:12.004Z,9.90
2022-12-27T10:27:40.168Z,9.90
2022-12-27T10:30:16.474Z,9.90
2022-12-27T10:32:45.048Z,9.90
2022-12-27T10:35:22.458Z,9.90
2022-12-27T10:37:50.442Z,10.00
2022-12-27T10:40:29.841Z,10.00
2022-12-27T10:43:18.670Z,10.00
2022-12-27T10:45:46.197Z,10.00
2022-12-27T10:48:36.448Z,10.10
2022-12-27T10:51:14.955Z,10.20
2022-12-27T10:53:45.197Z,10.30
2022-12-27T10:56:16.892Z,10.20
2022-12-27T10:58:58.489Z,10.10
2022-12-27T11:01:29.910Z,10.20
2022-12-27T11:04:32.779Z,10.20
2022-12-27T11:07:00.060Z,10.30
2022-12-27T11:09:31.786Z,10.40
2022-12-27T11:12:12.931Z,10.40
2022-12-27T11:15:00.836Z,10.30
2022-12-27T11:17:41.354Z,10.30
2022-12-27T11:20:14.809Z,10.30
2022-12-27T11:23:11.328Z,10.40
2022-12-27T11:26:00.495Z,10.40
2022-12-27T11:28:35.396Z,10.50
2022-12-27T11:31:06.483Z,10.50
2022-12-27T11:33:39.676Z,10.40
2022-12-27T11:36:12.307Z,10.40
2022-12-27T11:38:44.367Z,10.40
2022-12-27T11:41:24.563Z,10.40
2022-12-27T11:44:03.635Z,10.40
2022-12-27T11:47:07.111Z,10.40
2022-12-27T11:49:46.669Z,10.40
2022-12-27T11:52:33.363Z,10.40
2022-12-27T11:55:12.334Z,10.40
2022-12-27T11:57:51.850Z,10.40
2022-12-27T12:00:23.168Z,10.30
2022-12-27T12:03:19.745Z,10.30
2022-12-27T12:06:19.924Z,10.30
2022-12-27T12:09:06.288Z,10.20
2022-12-27T12:11:56.827Z,10.20
2022-12-27T12:14:53.520Z,10.20
2022-12-27T12:17:37.471Z,10.20
2022-12-27T12:20:35.290Z,10.20
2022-12-27T12:23:02.772Z,10.20
2022-12-27T12:25:47.143Z,10.20
2022-12-27T12:28:57.798Z,10.10
2022-12-27T12:31:44.940Z,10.10
2022-12-27T12:34:33.009Z,10.10
2022-12-27T12:37:42.500Z,10.10
2022-12-27T12:40:44.456Z,10.10
2022-12-27T12:43:23.778Z,10.00
2022-12-27T12:46:33.295Z,9.90
2022-12-27T12:49:18.591Z,9.90
2022-12-27T12:51:46.188Z,10.00
2022-12-27T12:54:34.920Z,10.00
2022-12-27T12:57:23.896Z,10.00
2022-12-27T13:00:17.009Z,10.00
2022-12-27T13:03:03.449Z,10.00
2022-12-27T13:05:43.306Z,10.00
2022-12-27T13:08:18.539Z,10.00
2022-12-27T13:11:14.164Z,10.00
2022-12-27T13:14:06.612Z,10.00
2022-12-27T13:16:52.923Z,10.00
2022-12-27T13:20:08.037Z,10.00
2022-12-27T13:23:16.365Z,10.00
2022-12-27T13:25:53.626Z,10.00
2022-12-27T13:29:08.435Z,9.90
2022-12-27T13:31:52.785Z,9.80
2022-12-27T13:34:47.621Z,9.80
2022-12-27T13:37:32.628Z,9.80
2022-12-27T13:40:37.013Z,9.80
2022-12-27T13:43:12.312Z,9.70
2022-12-27T13:45:55.207Z,9.60
2022-12-27T13:48:44.592Z,9.60
2022-12-27T13:51:17.019Z,9.60
2022-12-27T13:54:12.404Z,9.60
2022-12-27T13:56:54.767Z,9.50
2022-12-27T13:59:47.360Z,9.40
2022-12-27T14:02:39.083Z,9.40
2022-12-27T14:05:25.234Z,9.40
2022-12-27T14:08:27.329Z,9.40
2022-12-27T14:11:00.881Z,9.30
2022-12-27T14:13:38.909Z,9.30
2022-12-27T14:16:23.511Z,9.30
2022-12-27T14:18:56.620Z,9.20
2022-12-27T14:21:32.878Z,9.10
2022-12-27T14:24:28.434Z,9.10
2022-12-27T14:27:14.581Z,9.10
2022-12-27T14:30:02.823Z,9.00
2022-12-27T14:32:42.161Z,9.00
2022-12-27T14:35:35.722Z,8.90
2022-12-27T14:38:15.473Z,8.80
2022-12-27T14:41:20.564Z,8.80
2022-12-27T14:44:16.775Z,8.70
2022-12-27T14:47:14.854Z,8.70
2022-12-27T14:50:39.293Z,8.60
2022-12-27T14:53:27.850Z,8.60
2022-12-27T14:56:30.086Z,8.50
2022-12-27T14:59:21.436Z,8.50
2022-12-27T15:02:20.780Z,8.40
2022-12-27T15:05:00.810Z,8.40
2022-12-27T15:07:46.823Z,8.30
2022-12-27T15:10:33.823Z,8.30
2022-12-27T15:13:15.796Z,8.30
2022-12-27T15:16:15.717Z,8.30
2022-12-27T15:18:52.288Z,8.20
2022-12-27T15:21:43.550Z,8.20
2022-12-27T15:24:13.707Z,8.20
2022-12-27T15:27:02.801Z,8.10
2022-12-27T15:30:01.187Z,8.10
2022-12-27T15:33:04.098Z,8.00
2022-12-27T15:35:34.293Z,8.00
2022-12-27T15:38:15.160Z,8.00
2022-12-27T15:40:53.475Z,7.90
2022-12-27T15:43:42.176Z,7.90
2022-12-27T15:46:17.426Z,7.90
2022-12-27T15:49:06.332Z,7.80
2022-12-27T15:52:08.003Z,7.80
2022-12-27T15:54:58.225Z,7.70
2022-12-27T15:57:53.631Z,7.70
2022-12-27T16:00:24.139Z,7.70
2022-12-27T16:03:00.073Z,7.70
2022-12-27T16:05:44.760Z,7.60
2022-12-27T16:08:24.358Z,7.60
2022-12-27T16:10:52.783Z,7.70
2022-12-27T16:13:37.687Z,7.60
2022-12-27T16:16:39.091Z,7.60
2022-12-27T16:19:34.204Z,7.60
2022-12-27T16:22:23.762Z,7.60
2022-12-27T16:24:51.215Z,7.60
2022-12-27T16:27:35.903Z,7.60
2022-12-27T16:30:04.107Z,7.50
2022-12-27T16:32:31.544Z,7.50
2022-12-27T16:35:13.999Z,7.50
2022-12-27T16:37:53.167Z,7.50
2022-12-27T16:40:43.123Z,7.50
2022-12-27T16:43:10.471Z,7.40
2022-12-27T16:45:58.762Z,7.40
2022-12-27T16:48:34.685Z,7.40
2022-12-27T16:51:02.336Z,7.30
2022-12-27T16:53:58.988Z,7.30
2022-12-27T16:56:29.184Z,7.20
2022-12-27T16:58:57.220Z,7.20
2022-12-27T17:01:57.081Z,7.20
2022-12-27T17:05:01.737Z,7.20
2022-12-27T17:07:56.092Z,7.20
2022-12-27T17:10:32.175Z,7.10
2022-12-27T17:13:16.993Z,7.10
2022-12-27T17:16:12.245Z,7.00
2022-12-27T17:18:58.568Z,7.00
2022-12-27T17:21:34.874Z,7.00
2022-12-27T17:24:29.146Z,6.90
2022-12-27T17:27:18.557Z,6.90
2022-12-27T17:30:04.604Z,6.90
2022-12-27T17:32:54.293Z,6.90
2022-12-27T17:35:52.555Z,6.80
2022-12-27T17:38:41.595Z,6.80
2022-12-27T17:41:47.591Z,6.80
2022-12-27T17:44:38.043Z,6.70
2022-12-27T17:47:18.235Z,6.70
2022-12-27T17:49:46.634Z,6.70
2022-12-27T17:52:36.252Z,6.70
2022-12-27T17:55:44.980Z,6.70
2022-12-27T17:58:16.148Z,6.70
2022-12-27T18:00:56.170Z,6.60
2022-12-27T18:03:26.421Z,6.60
2022-12-27T18:05:53.873Z,6.60
2022-12-27T18:08:34.204Z,6.60
2022-12-27T18:11:03.767Z,6.60
2022-12-27T18:13:38.650Z,6.70
2022-12-27T18:16:24.261Z,6.60
2022-12-27T18:18:54.434Z,6.60
2022-12-27T18:21:28.022Z,6.60
2022-12-27T18:23:56.396Z,6.60
2022-12-27T18:26:38.313Z,6.60
2022-12-27T18:29:06.218Z,6.60
2022-12-27T18:31:40.793Z,6.60
2022-12-27T18:34:28.561Z,6.60
2022-12-27T18:37:07.586Z,6.70
2022-12-27T18:39:48.389Z,6.70
2022-12-27T18:42:51.702Z,6.70
2022-12-27T18:45:29.449Z,6.70
2022-12-27T18:48:00.283Z,6.70
2022-12-27T18:50:33.792Z,6.70
2022-12-27T18:53:07.252Z,6.70
2022-12-27T18:55:35.616Z,6.70
2022-12-27T18:58:20.640Z,6.80
2022-12-27T19:00:49.742Z,6.70
2022-12-27T19:03:19.751Z,6.70
2022-12-27T19:06:13.609Z,6.70
2022-12-27T19:08:51.807Z,6.70
2022-12-27T19:11:26.950Z,6.70
2022-12-27T19:14:00.930Z,6.60
2022-12-27T19:16:30.543Z,6.60
2022-12-27T19:19:04.091Z,6.60
2022-12-27T19:21:38.257Z,6.50
2022-12-27T19:24:31.758Z,6.30
2022-12-27T19:27:13.787Z,6.20
2022-12-27T19:29:50.497Z,6.10
2022-12-27T19:32:23.763Z,6.00
2022-12-27T19:34:54.769Z,5.90
2022-12-27T19:37:26.648Z,5.90
2022-12-27T19:39:54.977Z,5.90
2022-12-27T19:42:31.520Z,5.80
2022-12-27T19:44:58.825Z,5.80
2022-12-27T19:47:27.470Z,5.80
2022-12-27T19:49:54.916Z,5.80
2022-12-27T19:52:26.650Z,5.80
2022-12-27T19:55:02.390Z,5.90
2022-12-27T19:57:29.695Z,5.90
2022-12-27T19:59:56.949Z,5.90
2022-12-27T20:02:24.628Z,6.00
2022-12-27T20:04:52.448Z,6.00
2022-12-27T20:07:24.665Z,6.00
2022-12-27T20:09:52.285Z,6.00
2022-12-27T20:12:19.646Z,6.00
2022-12-27T20:14:47.542Z,6.10
2022-12-27T20:17:15.262Z,6.10
2022-12-27T20:19:42.670Z,6.10
2022-12-27T20:22:09.921Z,6.20
2022-12-27T20:24:38.077Z,6.20
2022-12-27T20:27:05.982Z,6.20
2022-12-27T20:29:33.489Z,6.20
2022-12-27T20:32:00.791Z,6.10
2022-12-27T20:34:28.642Z,6.10
2022-12-27T20:36:58.265Z,6.00
2022-12-27T20:39:25.787Z,5.90
2022-12-27T20:41:53.038Z,5.80
2022-12-27T20:44:20.516Z,5.80
2022-12-27T20:46:48.730Z,5.70
2022-12-27T20:49:16.065Z,5.70
2022-12-27T20:51:43.361Z,5.70
2022-12-27T20:54:13.325Z,5.80
2022-12-27T20:56:40.892Z,5.80
2022-12-27T20:59:08.668Z,5.80
2022-12-27T21:01:36.225Z,5.80
2022-12-27T21:04:04.397Z,5.80
2022-12-27T21:06:31.838Z,5.80
2022-12-27T21:08:59.599Z,5.80
2022-12-27T21:11:31.136Z,5.70
2022-12-27T21:14:00.770Z,5.70
2022-12-27T21:16:30.256Z,5.70
2022-12-27T21:18:58.336Z,5.70
2022-12-27T21:21:28.612Z,5.60
2022-12-27T21:23:58.104Z,5.60
2022-12-27T21:26:29.291Z,5.60
2022-12-27T21:28:57.812Z,5.50
2022-12-27T21:31:26.138Z,5.50
2022-12-27T21:33:53.740Z,5.40
2022-12-27T21:36:24.835Z,5.30
2022-12-27T21:38:52.928Z,5.30
2022-12-27T21:41:30.569Z,5.20
2022-12-27T21:43:58.216Z,5.20
2022-12-27T21:46:36.642Z,5.20
2022-12-27T21:49:13.609Z,5.10
2022-12-27T21:51:42.528Z,5.10
2022-12-27T21:54:10.962Z,5.00
2022-12-27T21:56:39.089Z,4.90
2022-12-27T21:59:11.019Z,4.80
2022-12-27T22:01:52.099Z,4.70
2022-12-27T22:04:21.001Z,4.70
2022-12-27T22:06:48.742Z,4.70
2022-12-27T22:09:16.118Z,4.70
2022-12-27T22:11:43.679Z,4.70
2022-12-27T22:14:11.134Z,4.60
2022-12-27T22:16:39.565Z,4.60
2022-12-27T22:19:12.545Z,4.60
2022-12-27T22:21:41.386Z,4.60
2022-12-27T22:24:15.486Z,4.60
2022-12-27T22:26:43.332Z,4.50
2022-12-27T22:29:12.102Z,4.50
2022-12-27T22:31:40.402Z,4.50
2022-12-27T22:34:07.855Z,4.50
2022-12-27T22:36:35.546Z,4.50
2022-12-27T22:39:04.062Z,4.50
2022-12-27T22:41:36.733Z,4.50
2022-12-27T22:44:07.287Z,4.40
2022-12-27T22:49:22.655Z,4.40
2022-12-27T22:51:50.070Z,4.30
2022-12-27T22:54:17.515Z,4.30
2022-12-27T22:56:44.838Z,4.30
2022-12-27T22:59:14.501Z,4.30
2022-12-27T23:01:43.305Z,4.20
2022-12-27T23:04:12.608Z,4.20
2022-12-27T23:06:40.914Z,4.10
2022-12-27T23:09:09.102Z,4.10
2022-12-27T23:11:41.129Z,4.00
2022-12-27T23:14:14.747Z,4.00
2022-12-27T23:16:49.371Z,3.90
2022-12-27T23:19:19.825Z,3.90
2022-12-27T23:21:48.032Z,3.80
2022-12-27T23:24:15.794Z,3.80
2022-12-27T23:26:43.637Z,3.80
2022-12-27T23:29:12.947Z,3.70
2022-12-27T23:31:54.090Z,3.70
2022-12-27T23:34:27.805Z,3.70
2022-12-27T23:36:57.997Z,3.60
2022-12-27T23:39:25.822Z,3.60
2022-12-27T23:41:53.725Z,3.60
2022-12-27T23:44:33.067Z,3.60
2022-12-27T23:47:05.934Z,3.50
2022-12-27T23:49:34.581Z,3.40
2022-12-27T23:52:02.408Z,3.40
2022-12-27T23:54:30.118Z,3.40
2022-12-27T23:56:58.040Z,3.40
2022-12-27T23:59:25.348Z,3.30
